Adel, Iowa
Current Conditions -  °F | °C
As of 2:35 AM on Saturday 22 Nov 2014 (Local Time) from KPRO Reporting Station
Haze Haze  
Wind Chill:   Ceiling: 600
Heat Index:   Visibility: 5mi
Dew Point:   Wind: 6mph
Humidity: 97%   Direction: 200°SSW
Pressure: 29.97"   Gusts: NA
Location:  41.61°N, 94.02°W
Report Text: KPRO 220835Z AUTO 20005KT 5SM BR OVC006 03/02 A2997 RMK AO2 T00250020
Loading
Personal Weather Stations






























Interactive Weather Map New forecast layout! Learn more

10-Day Weather Forecast

Advertisements
Track Severe Weather on mobile